sensor_id;sensor_type;location;lat;lon;timestamp;pressure;altitude;pressure_sealevel;temperature;humidity
12594;BME280;6362;50.208;9.182;2023-01-01T00:02:23;99882.72;;;13.52;56.58
12594;BME280;6362;50.208;9.182;2023-01-01T00:04:49;99879.28;;;13.50;56.74
12594;BME280;6362;50.208;9.182;2023-01-01T00:07:14;99874.91;;;13.48;56.80
12594;BME280;6362;50.208;9.182;2023-01-01T00:09:39;99882.09;;;13.39;57.03
12594;BME280;6362;50.208;9.182;2023-01-01T00:12:23;99882.91;;;13.41;56.97
12594;BME280;6362;50.208;9.182;2023-01-01T00:14:49;99883.09;;;13.32;57.40
12594;BME280;6362;50.208;9.182;2023-01-01T00:17:14;99878.06;;;13.23;57.74
12594;BME280;6362;50.208;9.182;2023-01-01T00:19:40;99875.72;;;13.07;58.06
12594;BME280;6362;50.208;9.182;2023-01-01T00:22:05;99887.09;;;13.05;58.62
12594;BME280;6362;50.208;9.182;2023-01-01T00:24:30;99882.78;;;13.01;59.00
12594;BME280;6362;50.208;9.182;2023-01-01T00:26:56;99879.53;;;12.88;59.29
12594;BME280;6362;50.208;9.182;2023-01-01T00:29:22;99883.09;;;12.84;59.52
12594;BME280;6362;50.208;9.182;2023-01-01T00:31:47;99894.41;;;12.84;59.67
12594;BME280;6362;50.208;9.182;2023-01-01T00:34:13;99891.75;;;12.86;59.90
12594;BME280;6362;50.208;9.182;2023-01-01T00:36:39;99890.84;;;12.87;60.06
12594;BME280;6362;50.208;9.182;2023-01-01T00:39:04;99881.56;;;12.72;60.12
12594;BME280;6362;50.208;9.182;2023-01-01T00:41:30;99886.00;;;12.65;60.40
12594;BME280;6362;50.208;9.182;2023-01-01T00:43:55;99881.84;;;12.55;60.88
12594;BME280;6362;50.208;9.182;2023-01-01T00:46:20;99882.81;;;12.50;61.23
12594;BME280;6362;50.208;9.182;2023-01-01T00:48:46;99882.22;;;12.31;61.85
12594;BME280;6362;50.208;9.182;2023-01-01T00:51:11;99882.31;;;12.25;62.05
12594;BME280;6362;50.208;9.182;2023-01-01T00:53:37;99886.81;;;12.13;62.38
12594;BME280;6362;50.208;9.182;2023-01-01T00:56:03;99893.13;;;12.00;62.90
12594;BME280;6362;50.208;9.182;2023-01-01T00:58:29;99897.69;;;11.81;63.32
12594;BME280;6362;50.208;9.182;2023-01-01T01:00:55;99891.72;;;11.72;63.77
12594;BME280;6362;50.208;9.182;2023-01-01T01:03:21;99895.19;;;11.71;63.48
12594;BME280;6362;50.208;9.182;2023-01-01T01:05:58;99894.78;;;12.06;62.66
12594;BME280;6362;50.208;9.182;2023-01-01T01:08:25;99890.53;;;11.97;62.72
12594;BME280;6362;50.208;9.182;2023-01-01T01:10:52;99895.00;;;11.87;63.32
12594;BME280;6362;50.208;9.182;2023-01-01T01:13:18;99898.47;;;11.88;62.77
12594;BME280;6362;50.208;9.182;2023-01-01T01:15:43;99901.19;;;11.79;63.08
12594;BME280;6362;50.208;9.182;2023-01-01T01:18:09;99895.25;;;11.68;63.44
12594;BME280;6362;50.208;9.182;2023-01-01T01:20:34;99898.75;;;11.65;63.48
12594;BME280;6362;50.208;9.182;2023-01-01T01:22:59;99910.91;;;11.64;63.55
12594;BME280;6362;50.208;9.182;2023-01-01T01:25:25;99918.63;;;11.74;63.31
12594;BME280;6362;50.208;9.182;2023-01-01T01:27:50;99916.91;;;11.70;63.64
12594;BME280;6362;50.208;9.182;2023-01-01T01:30:16;99903.84;;;11.74;63.03
12594;BME280;6362;50.208;9.182;2023-01-01T01:32:41;99907.34;;;11.73;63.21
12594;BME280;6362;50.208;9.182;2023-01-01T01:35:07;99907.28;;;11.76;63.16
12594;BME280;6362;50.208;9.182;2023-01-01T01:37:32;99900.19;;;11.91;62.66
12594;BME280;6362;50.208;9.182;2023-01-01T01:39:58;99903.75;;;11.85;62.78
12594;BME280;6362;50.208;9.182;2023-01-01T01:42:23;99908.16;;;11.78;63.06
12594;BME280;6362;50.208;9.182;2023-01-01T01:44:52;99903.00;;;11.71;63.21
12594;BME280;6362;50.208;9.182;2023-01-01T01:47:50;99910.03;;;11.64;63.89
12594;BME280;6362;50.208;9.182;2023-01-01T01:50:31;99910.09;;;11.59;63.58
12594;BME280;6362;50.208;9.182;2023-01-01T01:56:00;99909.38;;;11.47;64.30
12594;BME280;6362;50.208;9.182;2023-01-01T01:58:28;99902.63;;;11.30;64.70
12594;BME280;6362;50.208;9.182;2023-01-01T02:03:30;99902.00;;;11.08;65.53
12594;BME280;6362;50.208;9.182;2023-01-01T02:05:57;99896.91;;;10.96;65.90
12594;BME280;6362;50.208;9.182;2023-01-01T02:08:23;99903.91;;;10.90;66.65
12594;BME280;6362;50.208;9.182;2023-01-01T02:10:50;99889.00;;;11.04;66.61
12594;BME280;6362;50.208;9.182;2023-01-01T02:13:16;99890.78;;;11.02;66.54
12594;BME280;6362;50.208;9.182;2023-01-01T02:18:38;99899.34;;;11.13;66.69
12594;BME280;6362;50.208;9.182;2023-01-01T02:21:13;99892.16;;;11.35;66.24
12594;BME280;6362;50.208;9.182;2023-01-01T02:23:57;99889.22;;;11.62;65.69
12594;BME280;6362;50.208;9.182;2023-01-01T02:29:45;99895.19;;;11.71;65.14
12594;BME280;6362;50.208;9.182;2023-01-01T02:32:14;99894.31;;;11.73;65.35
12594;BME280;6362;50.208;9.182;2023-01-01T02:37:16;99891.41;;;11.98;64.51
12594;BME280;6362;50.208;9.182;2023-01-01T02:39:51;99896.19;;;12.28;63.56
12594;BME280;6362;50.208;9.182;2023-01-01T02:42:19;99898.63;;;12.37;63.32
12594;BME280;6362;50.208;9.182;2023-01-01T02:44:49;99903.06;;;12.34;63.22
12594;BME280;6362;50.208;9.182;2023-01-01T02:47:18;99903.94;;;12.33;63.39
12594;BME280;6362;50.208;9.182;2023-01-01T02:49:59;99910.03;;;12.30;63.49
12594;BME280;6362;50.208;9.182;2023-01-01T02:52:49;99912.59;;;12.35;63.50
12594;BME280;6362;50.208;9.182;2023-01-01T02:58:12;99903.91;;;12.88;62.18
12594;BME280;6362;50.208;9.182;2023-01-01T03:01:09;99906.44;;;12.91;62.15
12594;BME280;6362;50.208;9.182;2023-01-01T03:03:55;99912.22;;;13.10;61.85
12594;BME280;6362;50.208;9.182;2023-01-01T03:06:35;99927.84;;;13.12;61.71
12594;BME280;6362;50.208;9.182;2023-01-01T03:14:09;99934.75;;;13.16;62.13
12594;BME280;6362;50.208;9.182;2023-01-01T03:16:45;99931.28;;;13.14;62.30
12594;BME280;6362;50.208;9.182;2023-01-01T03:19:28;99935.44;;;13.26;62.02
12594;BME280;6362;50.208;9.182;2023-01-01T03:27:01;99938.72;;;13.37;61.74
12594;BME280;6362;50.208;9.182;2023-01-01T03:29:30;99929.13;;;13.39;61.74
12594;BME280;6362;50.208;9.182;2023-01-01T03:31:58;99931.53;;;13.48;61.50
12594;BME280;6362;50.208;9.182;2023-01-01T03:34:32;99922.84;;;13.47;61.30
12594;BME280;6362;50.208;9.182;2023-01-01T03:37:04;99919.31;;;13.50;61.10
12594;BME280;6362;50.208;9.182;2023-01-01T03:39:35;99916.81;;;13.45;61.52
12594;BME280;6362;50.208;9.182;2023-01-01T03:42:27;99922.81;;;13.49;61.25
12594;BME280;6362;50.208;9.182;2023-01-01T03:44:59;99919.25;;;13.53;61.29
12594;BME280;6362;50.208;9.182;2023-01-01T03:47:26;99923.75;;;13.46;61.34
12594;BME280;6362;50.208;9.182;2023-01-01T03:49:53;99922.81;;;13.49;61.46
12594;BME280;6362;50.208;9.182;2023-01-01T03:52:25;99917.31;;;13.63;60.63
12594;BME280;6362;50.208;9.182;2023-01-01T03:58:01;99933.81;;;13.65;60.37
12594;BME280;6362;50.208;9.182;2023-01-01T04:00:32;99939.00;;;13.68;60.37
12594;BME280;6362;50.208;9.182;2023-01-01T04:03:10;99934.59;;;13.71;60.11
12594;BME280;6362;50.208;9.182;2023-01-01T04:05:40;99946.75;;;13.72;59.99
12594;BME280;6362;50.208;9.182;2023-01-01T04:08:07;99950.31;;;13.68;60.23
12594;BME280;6362;50.208;9.182;2023-01-01T04:10:35;99942.47;;;13.68;59.98
12594;BME280;6362;50.208;9.182;2023-01-01T04:13:04;99944.47;;;13.56;60.64
12594;BME280;6362;50.208;9.182;2023-01-01T04:15:31;99932.09;;;13.64;60.40
12594;BME280;6362;50.208;9.182;2023-01-01T04:17:57;99930.59;;;13.52;60.60
12594;BME280;6362;50.208;9.182;2023-01-01T04:20:24;99941.38;;;13.35;61.30
12594;BME280;6362;50.208;9.182;2023-01-01T04:22:49;99934.69;;;13.19;62.09
12594;BME280;6362;50.208;9.182;2023-01-01T04:25:15;99942.81;;;13.02;62.60
12594;BME280;6362;50.208;9.182;2023-01-01T04:27:41;99937.66;;;12.98;62.73
12594;BME280;6362;50.208;9.182;2023-01-01T04:30:09;99930.53;;;13.07;62.25
12594;BME280;6362;50.208;9.182;2023-01-01T04:32:35;99933.06;;;13.12;62.24
12594;BME280;6362;50.208;9.182;2023-01-01T04:35:00;99939.22;;;13.08;62.19
12594;BME280;6362;50.208;9.182;2023-01-01T04:37:26;99930.75;;;12.95;62.44
12594;BME280;6362;50.208;9.182;2023-01-01T04:39:51;99930.00;;;12.88;62.71
12594;BME280;6362;50.208;9.182;2023-01-01T04:42:17;99941.53;;;12.75;62.97
12594;BME280;6362;50.208;9.182;2023-01-01T04:44:43;99946.69;;;12.78;63.32
12594;BME280;6362;50.208;9.182;2023-01-01T04:47:08;99948.53;;;12.73;63.21
12594;BME280;6362;50.208;9.182;2023-01-01T04:49:34;99950.53;;;12.54;63.69
12594;BME280;6362;50.208;9.182;2023-01-01T04:51:59;99952.44;;;12.45;64.19
12594;BME280;6362;50.208;9.182;2023-01-01T04:54:25;99959.28;;;12.52;63.70
12594;BME280;6362;50.208;9.182;2023-01-01T04:56:50;99959.06;;;12.65;63.55
12594;BME280;6362;50.208;9.182;2023-01-01T04:59:15;99954.72;;;12.66;63.34
12594;BME280;6362;50.208;9.182;2023-01-01T05:01:41;99954.75;;;12.63;63.53
12594;BME280;6362;50.208;9.182;2023-01-01T05:04:06;99954.97;;;12.51;63.83
12594;BME280;6362;50.208;9.182;2023-01-01T05:06:32;99957.53;;;12.52;63.50
12594;BME280;6362;50.208;9.182;2023-01-01T05:08:57;99955.69;;;12.60;63.30
12594;BME280;6362;50.208;9.182;2023-01-01T05:11:28;99970.44;;;12.60;63.39
12594;BME280;6362;50.208;9.182;2023-01-01T05:13:56;99967.22;;;12.46;63.53
12594;BME280;6362;50.208;9.182;2023-01-01T05:16:25;99961.91;;;12.52;63.21
12594;BME280;6362;50.208;9.182;2023-01-01T05:18:51;99972.13;;;12.64;62.87
12594;BME280;6362;50.208;9.182;2023-01-01T05:21:24;99974.66;;;12.72;62.82
12594;BME280;6362;50.208;9.182;2023-01-01T05:23:54;99967.78;;;12.64;62.54
12594;BME280;6362;50.208;9.182;2023-01-01T05:26:22;99984.44;;;12.56;62.82
12594;BME280;6362;50.208;9.182;2023-01-01T05:28:48;99983.06;;;12.87;60.90
12594;BME280;6362;50.208;9.182;2023-01-01T05:31:16;99980.47;;;12.89;61.09
12594;BME280;6362;50.208;9.182;2023-01-01T05:33:42;99989.34;;;12.77;61.57
12594;BME280;6362;50.208;9.182;2023-01-01T05:36:13;99989.94;;;12.94;61.09
12594;BME280;6362;50.208;9.182;2023-01-01T05:38:38;99995.34;;;12.84;61.35
12594;BME280;6362;50.208;9.182;2023-01-01T05:41:08;100011.16;;;12.73;61.82
12594;BME280;6362;50.208;9.182;2023-01-01T05:43:34;100002.47;;;12.73;61.82
12594;BME280;6362;50.208;9.182;2023-01-01T05:46:02;99995.16;;;12.93;61.00
12594;BME280;6362;50.208;9.182;2023-01-01T05:48:27;100009.69;;;13.09;59.34
12594;BME280;6362;50.208;9.182;2023-01-01T05:50:53;100013.94;;;13.16;59.18
12594;BME280;6362;50.208;9.182;2023-01-01T05:53:18;100013.69;;;13.32;58.18
12594;BME280;6362;50.208;9.182;2023-01-01T05:55:43;100018.03;;;13.34;58.22
12594;BME280;6362;50.208;9.182;2023-01-01T05:58:09;100022.47;;;13.29;58.84
12594;BME280;6362;50.208;9.182;2023-01-01T06:00:34;100016.41;;;13.27;58.87
12594;BME280;6362;50.208;9.182;2023-01-01T06:03:00;100018.22;;;13.20;59.18
12594;BME280;6362;50.208;9.182;2023-01-01T06:05:25;100019.16;;;13.16;59.47
12594;BME280;6362;50.208;9.182;2023-01-01T06:07:50;100027.28;;;13.00;60.23
12594;BME280;6362;50.208;9.182;2023-01-01T06:10:16;100020.41;;;12.92;60.68
12594;BME280;6362;50.208;9.182;2023-01-01T06:12:41;100022.25;;;12.86;60.71
12594;BME280;6362;50.208;9.182;2023-01-01T06:15:07;100017.22;;;12.74;60.88
12594;BME280;6362;50.208;9.182;2023-01-01T06:17:33;100014.38;;;12.87;60.69
12594;BME280;6362;50.208;9.182;2023-01-01T06:19:58;100015.47;;;12.74;61.12
12594;BME280;6362;50.208;9.182;2023-01-01T06:22:24;100012.69;;;12.86;60.57
12594;BME280;6362;50.208;9.182;2023-01-01T06:24:49;100022.28;;;12.84;60.68
12594;BME280;6362;50.208;9.182;2023-01-01T06:27:14;100020.53;;;12.85;60.66
12594;BME280;6362;50.208;9.182;2023-01-01T06:29:40;100019.78;;;12.77;60.87
12594;BME280;6362;50.208;9.182;2023-01-01T06:32:05;100014.66;;;12.72;61.06
12594;BME280;6362;50.208;9.182;2023-01-01T06:34:31;100022.25;;;12.86;60.49
12594;BME280;6362;50.208;9.182;2023-01-01T06:36:56;100027.66;;;12.74;61.05
12594;BME280;6362;50.208;9.182;2023-01-01T06:39:21;100030.41;;;12.64;61.32
12594;BME280;6362;50.208;9.182;2023-01-01T06:41:47;100041.97;;;12.47;62.04
12594;BME280;6362;50.208;9.182;2023-01-01T06:44:12;100038.59;;;12.38;62.07
12594;BME280;6362;50.208;9.182;2023-01-01T06:46:37;100043.88;;;12.34;62.59
12594;BME280;6362;50.208;9.182;2023-01-01T06:49:09;100050.97;;;12.21;62.75
12594;BME280;6362;50.208;9.182;2023-01-01T06:51:38;100048.44;;;12.17;63.08
12594;BME280;6362;50.208;9.182;2023-01-01T06:54:05;100034.63;;;12.08;63.04
12594;BME280;6362;50.208;9.182;2023-01-01T06:56:31;100039.88;;;12.05;63.14
12594;BME280;6362;50.208;9.182;2023-01-01T06:58:57;100047.50;;;12.21;62.58
12594;BME280;6362;50.208;9.182;2023-01-01T07:01:24;100061.41;;;12.21;62.38
12594;BME280;6362;50.208;9.182;2023-01-01T07:03:55;100051.78;;;12.26;61.93
12594;BME280;6362;50.208;9.182;2023-01-01T07:06:22;100049.16;;;12.26;62.40
12594;BME280;6362;50.208;9.182;2023-01-01T07:08:48;100057.94;;;12.22;62.19
12594;BME280;6362;50.208;9.182;2023-01-01T07:11:14;100064.72;;;12.35;61.83
12594;BME280;6362;50.208;9.182;2023-01-01T07:13:39;100067.34;;;12.34;61.77
12594;BME280;6362;50.208;9.182;2023-01-01T07:16:05;100072.66;;;12.28;61.90
12594;BME280;6362;50.208;9.182;2023-01-01T07:18:30;100075.16;;;12.32;61.64
12594;BME280;6362;50.208;9.182;2023-01-01T07:21:01;100090.97;;;12.20;62.02
12594;BME280;6362;50.208;9.182;2023-01-01T07:23:29;100100.44;;;12.29;62.06
12594;BME280;6362;50.208;9.182;2023-01-01T07:25:55;100088.34;;;12.23;61.87
12594;BME280;6362;50.208;9.182;2023-01-01T07:28:22;100092.69;;;12.21;61.90
12594;BME280;6362;50.208;9.182;2023-01-01T07:30:49;100092.69;;;12.23;61.68
12594;BME280;6362;50.208;9.182;2023-01-01T07:33:17;100094.38;;;12.27;61.68
12594;BME280;6362;50.208;9.182;2023-01-01T07:35:43;100097.66;;;12.44;61.00
12594;BME280;6362;50.208;9.182;2023-01-01T07:38:09;100100.03;;;12.59;60.63
12594;BME280;6362;50.208;9.182;2023-01-01T07:40:35;100096.63;;;12.56;60.81
12594;BME280;6362;50.208;9.182;2023-01-01T07:43:01;100106.22;;;12.52;60.54
12594;BME280;6362;50.208;9.182;2023-01-01T07:45:26;100114.09;;;12.51;60.64
12594;BME280;6362;50.208;9.182;2023-01-01T07:47:54;100118.53;;;12.42;60.89
12594;BME280;6362;50.208;9.182;2023-01-01T07:50:21;100108.06;;;12.46;60.86
12594;BME280;6362;50.208;9.182;2023-01-01T07:52:46;100112.44;;;12.42;60.88
12594;BME280;6362;50.208;9.182;2023-01-01T07:55:13;100119.47;;;12.35;61.14
12594;BME280;6362;50.208;9.182;2023-01-01T07:57:39;100134.09;;;12.49;60.76
12594;BME280;6362;50.208;9.182;2023-01-01T08:00:05;100131.56;;;12.42;60.75
12594;BME280;6362;50.208;9.182;2023-01-01T08:02:31;100150.59;;;12.52;60.77
12594;BME280;6362;50.208;9.182;2023-01-01T08:04:56;100141.06;;;12.48;60.74
12594;BME280;6362;50.208;9.182;2023-01-01T08:07:22;100137.56;;;12.51;60.57
12594;BME280;6362;50.208;9.182;2023-01-01T08:09:47;100141.00;;;12.53;60.64
12594;BME280;6362;50.208;9.182;2023-01-01T08:12:13;100137.47;;;12.58;60.85
12594;BME280;6362;50.208;9.182;2023-01-01T08:14:38;100146.97;;;12.64;60.31
12594;BME280;6362;50.208;9.182;2023-01-01T08:17:03;100154.72;;;12.72;60.14
12594;BME280;6362;50.208;9.182;2023-01-01T08:19:29;100157.13;;;12.85;59.68
12594;BME280;6362;50.208;9.182;2023-01-01T08:21:54;100159.56;;;12.98;58.79
12594;BME280;6362;50.208;9.182;2023-01-01T08:24:20;100152.75;;;12.89;58.44
12594;BME280;6362;50.208;9.182;2023-01-01T08:26:47;100152.63;;;12.97;59.26
12594;BME280;6362;50.208;9.182;2023-01-01T08:29:13;100135.88;;;13.11;58.73
12594;BME280;6362;50.208;9.182;2023-01-01T08:31:39;100128.84;;;13.16;58.71
12594;BME280;6362;50.208;9.182;2023-01-01T08:34:05;100129.66;;;13.23;58.47
12594;BME280;6362;50.208;9.182;2023-01-01T08:36:32;100138.38;;;13.22;58.52
12594;BME280;6362;50.208;9.182;2023-01-01T08:38:57;100139.25;;;13.18;58.57
12594;BME280;6362;50.208;9.182;2023-01-01T08:41:23;100140.81;;;13.31;58.43
12594;BME280;6362;50.208;9.182;2023-01-01T08:43:48;100152.88;;;13.41;58.08
12594;BME280;6362;50.208;9.182;2023-01-01T08:46:14;100147.50;;;13.49;57.69
12594;BME280;6362;50.208;9.182;2023-01-01T08:48:39;100144.91;;;13.51;57.88
12594;BME280;6362;50.208;9.182;2023-01-01T08:51:05;100146.53;;;13.55;57.48
12594;BME280;6362;50.208;9.182;2023-01-01T08:53:31;100150.91;;;13.56;57.84
12594;BME280;6362;50.208;9.182;2023-01-01T08:56:02;100157.00;;;13.55;57.94
12594;BME280;6362;50.208;9.182;2023-01-01T08:58:29;100159.47;;;13.64;57.43
12594;BME280;6362;50.208;9.182;2023-01-01T09:00:54;100166.59;;;13.56;57.77
12594;BME280;6362;50.208;9.182;2023-01-01T09:03:20;100164.59;;;13.70;57.58
12594;BME280;6362;50.208;9.182;2023-01-01T09:05:46;100167.94;;;13.80;57.36
12594;BME280;6362;50.208;9.182;2023-01-01T09:08:12;100173.97;;;13.83;57.26
12594;BME280;6362;50.208;9.182;2023-01-01T09:10:38;100170.41;;;13.87;57.07
12594;BME280;6362;50.208;9.182;2023-01-01T09:13:03;100180.81;;;13.90;57.45
12594;BME280;6362;50.208;9.182;2023-01-01T09:15:29;100179.88;;;13.93;56.79
12594;BME280;6362;50.208;9.182;2023-01-01T09:17:54;100184.84;;;14.08;56.45
12594;BME280;6362;50.208;9.182;2023-01-01T09:20:20;100180.47;;;14.10;56.49
12594;BME280;6362;50.208;9.182;2023-01-01T09:22:45;100175.97;;;14.18;56.44
12594;BME280;6362;50.208;9.182;2023-01-01T09:25:10;100183.75;;;14.21;56.35
12594;BME280;6362;50.208;9.182;2023-01-01T09:27:36;100185.22;;;14.36;56.24
12594;BME280;6362;50.208;9.182;2023-01-01T09:30:01;100187.75;;;14.41;56.10
12594;BME280;6362;50.208;9.182;2023-01-01T09:32:27;100186.75;;;14.49;55.72
12594;BME280;6362;50.208;9.182;2023-01-01T09:34:52;100190.13;;;14.55;55.29
12594;BME280;6362;50.208;9.182;2023-01-01T09:37:18;100196.13;;;14.61;55.31
12594;BME280;6362;50.208;9.182;2023-01-01T09:39:43;100210.00;;;14.65;55.03
12594;BME280;6362;50.208;9.182;2023-01-01T09:47:37;100227.41;;;14.67;55.29
12594;BME280;6362;50.208;9.182;2023-01-01T09:50:26;100236.47;;;14.49;55.33
12594;BME280;6362;50.208;9.182;2023-01-01T09:52:55;100226.19;;;14.37;55.86
12594;BME280;6362;50.208;9.182;2023-01-01T09:55:49;100218.31;;;14.39;55.98
12594;BME280;6362;50.208;9.182;2023-01-01T09:58:19;100224.50;;;14.35;56.35
12594;BME280;6362;50.208;9.182;2023-01-01T10:00:49;100205.13;;;14.43;55.88
12594;BME280;6362;50.208;9.182;2023-01-01T10:03:27;100200.88;;;14.39;56.18
12594;BME280;6362;50.208;9.182;2023-01-01T10:11:39;100203.59;;;14.79;54.64
12594;BME280;6362;50.208;9.182;2023-01-01T10:14:21;100199.69;;;14.99;54.44
12594;BME280;6362;50.208;9.182;2023-01-01T10:16:52;100207.88;;;15.24;53.95
12594;BME280;6362;50.208;9.182;2023-01-01T10:19:35;100194.53;;;15.35;53.29
12594;BME280;6362;50.208;9.182;2023-01-01T10:22:26;100181.63;;;15.25;53.46
12594;BME280;6362;50.208;9.182;2023-01-01T10:25:00;100174.91;;;15.14;53.68
12594;BME280;6362;50.208;9.182;2023-01-01T10:27:30;100160.38;;;14.99;54.01
12594;BME280;6362;50.208;9.182;2023-01-01T10:29:56;100170.25;;;14.88;54.47
12594;BME280;6362;50.208;9.182;2023-01-01T10:32:33;100172.41;;;14.69;54.55
12594;BME280;6362;50.208;9.182;2023-01-01T10:35:01;100176.81;;;14.65;54.77
12594;BME280;6362;50.208;9.182;2023-01-01T10:37:32;100177.72;;;14.66;55.22
12594;BME280;6362;50.208;9.182;2023-01-01T10:42:37;100183.75;;;14.68;55.08
12594;BME280;6362;50.208;9.182;2023-01-01T10:45:03;100182.72;;;14.75;54.79
12594;BME280;6362;50.208;9.182;2023-01-01T10:47:29;100173.06;;;14.78;54.84
12594;BME280;6362;50.208;9.182;2023-01-01T10:50:01;100174.75;;;14.81;54.99
12594;BME280;6362;50.208;9.182;2023-01-01T10:52:36;100183.25;;;14.92;54.79
12594;BME280;6362;50.208;9.182;2023-01-01T10:55:03;100188.69;;;14.82;54.76
12594;BME280;6362;50.208;9.182;2023-01-01T11:00:20;100192.09;;;14.87;54.57
12594;BME280;6362;50.208;9.182;2023-01-01T11:02:46;100184.38;;;14.81;54.64
12594;BME280;6362;50.208;9.182;2023-01-01T11:05:19;100183.47;;;14.82;54.95
12594;BME280;6362;50.208;9.182;2023-01-01T11:07:45;100194.06;;;14.77;55.24
12594;BME280;6362;50.208;9.182;2023-01-01T11:10:20;100171.28;;;14.81;54.79
12594;BME280;6362;50.208;9.182;2023-01-01T11:12:47;100182.72;;;14.75;55.05
12594;BME280;6362;50.208;9.182;2023-01-01T11:15:36;100175.09;;;14.64;55.38
12594;BME280;6362;50.208;9.182;2023-01-01T11:18:13;100183.06;;;14.58;55.22
12594;BME280;6362;50.208;9.182;2023-01-01T11:20:39;100176.03;;;14.60;55.14
12594;BME280;6362;50.208;9.182;2023-01-01T11:26:00;100174.31;;;14.59;55.41
12594;BME280;6362;50.208;9.182;2023-01-01T11:28:26;100166.13;;;14.76;54.75
12594;BME280;6362;50.208;9.182;2023-01-01T11:31:20;100155.28;;;14.93;54.45
12594;BME280;6362;50.208;9.182;2023-01-01T11:33:49;100158.38;;;15.12;53.96
12594;BME280;6362;50.208;9.182;2023-01-01T11:36:30;100151.19;;;15.20;53.86
12594;BME280;6362;50.208;9.182;2023-01-01T11:41:43;100131.91;;;15.24;53.39
12594;BME280;6362;50.208;9.182;2023-01-01T11:44:43;100123.53;;;15.45;53.16
12594;BME280;6362;50.208;9.182;2023-01-01T11:52:45;100116.22;;;16.25;50.01
12594;BME280;6362;50.208;9.182;2023-01-01T11:55:32;100113.66;;;16.23;50.53
12594;BME280;6362;50.208;9.182;2023-01-01T12:00:56;100125.06;;;16.21;50.10
12594;BME280;6362;50.208;9.182;2023-01-01T12:03:29;100122.59;;;16.16;50.65
12594;BME280;6362;50.208;9.182;2023-01-01T12:06:07;100129.16;;;16.00;51.50
12594;BME280;6362;50.208;9.182;2023-01-01T12:08:47;100124.59;;;15.74;51.74
12594;BME280;6362;50.208;9.182;2023-01-01T12:11:32;100127.50;;;15.60;52.41
12594;BME280;6362;50.208;9.182;2023-01-01T12:14:16;100130.44;;;15.49;52.74
12594;BME280;6362;50.208;9.182;2023-01-01T12:17:19;100121.06;;;15.39;52.98
12594;BME280;6362;50.208;9.182;2023-01-01T12:20:13;100121.47;;;15.21;53.98
12594;BME280;6362;50.208;9.182;2023-01-01T12:22:45;100115.41;;;15.19;53.69
12594;BME280;6362;50.208;9.182;2023-01-01T12:25:14;100129.44;;;15.18;53.57
12594;BME280;6362;50.208;9.182;2023-01-01T12:30:55;100128.09;;;15.00;54.21
12594;BME280;6362;50.208;9.182;2023-01-01T12:33:38;100126.34;;;15.00;54.21
12594;BME280;6362;50.208;9.182;2023-01-01T12:44:14;100127.53;;;14.86;55.11
12594;BME280;6362;50.208;9.182;2023-01-01T12:46:57;100131.03;;;14.85;54.94
12594;BME280;6362;50.208;9.182;2023-01-01T12:55:03;100123.22;;;14.83;55.41
12594;BME280;6362;50.208;9.182;2023-01-01T12:58:06;100128.25;;;14.92;55.10
12594;BME280;6362;50.208;9.182;2023-01-01T13:00:41;100120.66;;;14.80;55.36
12594;BME280;6362;50.208;9.182;2023-01-01T13:03:20;100117.03;;;14.86;55.25
12594;BME280;6362;50.208;9.182;2023-01-01T13:05:54;100115.19;;;14.91;55.29
12594;BME280;6362;50.208;9.182;2023-01-01T13:08:21;100113.53;;;14.87;55.59
12594;BME280;6362;50.208;9.182;2023-01-01T13:10:52;100111.91;;;14.81;55.38
12594;BME280;6362;50.208;9.182;2023-01-01T13:13:19;100104.06;;;14.81;55.48
12594;BME280;6362;50.208;9.182;2023-01-01T13:15:47;100108.44;;;14.81;55.29
12594;BME280;6362;50.208;9.182;2023-01-01T13:20:44;100103.78;;;14.93;55.16
12594;BME280;6362;50.208;9.182;2023-01-01T13:34:31;100123.72;;;15.00;54.70
12594;BME280;6362;50.208;9.182;2023-01-01T13:43:24;100113.91;;;15.09;54.53
12594;BME280;6362;50.208;9.182;2023-01-01T13:56:38;100115.19;;;14.91;55.13
12594;BME280;6362;50.208;9.182;2023-01-01T14:05:00;100120.13;;;14.66;55.47
12594;BME280;6362;50.208;9.182;2023-01-01T14:07:48;100117.50;;;14.64;55.51
12594;BME280;6362;50.208;9.182;2023-01-01T14:12:53;100123.47;;;14.71;55.45
12594;BME280;6362;50.208;9.182;2023-01-01T14:15:28;100124.38;;;14.70;55.07
12594;BME280;6362;50.208;9.182;2023-01-01T14:17:54;100115.66;;;14.69;55.36
12594;BME280;6362;50.208;9.182;2023-01-01T14:20:24;100123.59;;;14.66;54.69
12594;BME280;6362;50.208;9.182;2023-01-01T14:22:53;100131.44;;;14.66;54.32
12594;BME280;6362;50.208;9.182;2023-01-01T14:25:25;100132.47;;;14.58;54.95
12594;BME280;6362;50.208;9.182;2023-01-01T14:27:54;100135.06;;;14.59;54.81
12594;BME280;6362;50.208;9.182;2023-01-01T14:30:20;100123.66;;;14.63;54.79
12594;BME280;6362;50.208;9.182;2023-01-01T14:32:58;100124.59;;;14.61;54.89
12594;BME280;6362;50.208;9.182;2023-01-01T14:35:25;100124.84;;;14.47;55.24
12594;BME280;6362;50.208;9.182;2023-01-01T14:37:51;100126.34;;;14.59;55.35
12594;BME280;6362;50.208;9.182;2023-01-01T14:40:23;100132.66;;;14.50;55.88
12594;BME280;6362;50.208;9.182;2023-01-01T14:43:00;100138.72;;;14.52;55.94
12594;BME280;6362;50.208;9.182;2023-01-01T14:45:28;100133.59;;;14.44;56.06
12594;BME280;6362;50.208;9.182;2023-01-01T14:47:56;100124.00;;;14.43;55.94
12594;BME280;6362;50.208;9.182;2023-01-01T14:50:29;100121.38;;;14.43;56.25
12594;BME280;6362;50.208;9.182;2023-01-01T14:53:00;100146.16;;;14.27;56.57
12594;BME280;6362;50.208;9.182;2023-01-01T14:55:31;100139.34;;;14.18;56.90
12594;BME280;6362;50.208;9.182;2023-01-01T14:57:59;100143.59;;;14.24;56.70
12594;BME280;6362;50.208;9.182;2023-01-01T15:00:34;100139.38;;;14.17;56.67
12594;BME280;6362;50.208;9.182;2023-01-01T15:03:20;100136.09;;;14.04;57.29
12594;BME280;6362;50.208;9.182;2023-01-01T15:06:12;100138.81;;;13.99;57.56
12594;BME280;6362;50.208;9.182;2023-01-01T15:08:40;100139.72;;;13.97;57.76
12594;BME280;6362;50.208;9.182;2023-01-01T15:11:05;100129.34;;;13.94;57.49
12594;BME280;6362;50.208;9.182;2023-01-01T15:13:31;100134.34;;;14.06;57.33
12594;BME280;6362;50.208;9.182;2023-01-01T15:16:15;100131.03;;;13.96;57.50